Terminal Aerodrome Forecast
Issued by NWS

Home | Current Version | Previous Version | Text Only | Print | Product List | Glossary On
Versions: 1 2 3 4 5 6 7 8 9 10 11 12 13 14 15 16
000
FTUS41 KBOX 031124
TAFBED
TAF
KBED 031124Z 0312/0412 00000KT 6SM -RA BR OVC015
     FM031600 00000KT 6SM BR VCSH OVC020
     FM031900 VRB05KT P6SM VCSH OVC035=

USA.gov is the U.S. government's official web portal to all federal, state and local government web resources and services.